Hovedside
METAR-TAF:

METAR-TAF

Lufthavner :

Manado, Indonesia

breddegrad: 01-32N, lengdegrad: 124-55E, høyde over havet: 80 m

Gjeldene værobservasjon

Denne rapporten ble laget for 13 minutter siden, klokken 02:00 UTC
Vind 8 kt fra Sør, skiftende mellom Sør-sørøst og Vest-sørvest
Temperatur 29°C
Luftfuktighet 70%
Trykk 1013 hPa
Sikt 10 km eller mer
Spredte skyer i en høyde av 2000 ft

METAR: WAMM 220200Z 19008KT 160V240 9999 SCT020 29/23 Q1013 NOSIG

Tid: 09:13 (02:13 UTC)

Varsel

Denne rapporten ble laget for 3 timer og 13 minutter siden, klokken 23:00 UTC
Varsel gyldig fra 22. klokken 00 UTC til 23. klokken 06 UTC
Vind 10 kt fra Nordøst
Sikt 10 km eller mer
Få skyer i en høyde av 2000 ft
Blir
fra 21. klokken 11 UTC til 21. klokken 12 UTC
Vind 2 kt fra skiftende retning

TAF: WAMM 212300Z 2200/2306 05010KT 9999 FEW020 BECMG 2111/2112 VRB02KT

Værobservasjoner og værvarsel for over 4000 flyplasser (METAR- og TAF-rapporter).

Tilgjengelige stasjoner er representert av de røde og gule prikkene på kartet.

Hold musepekeren over prikken for å se navnet på stasjonen.

Klikk så for å se værobservasjoner og -varsler.

For å forandre kartet kan du klikke på den grønne knappen med svart kryss for å zoome inn, på den grønne knappen med strek for å zoome ut, eller på de grønne pilene for å se tilstøtende kart.


METAR-TAF: